Time;durP1;ratioP1;P1;durP2;ratioP2;P2;SDS_P1;SDS_P2;PMS_P1;PMS_P2;Temp;Humidity;BMP_temperature;BMP_pressure;BME280_temperature;BME280_humidity;BME280_pressure;Samples;Min_cycle;Max_cycle;Signal;HPM_P1;HPM_P2
2023/01/18 00:01:06;;;;;;;12.73;8.83;;;;;;;10.87;92.83;98073.97;5054567;28;20197;-75
2023/01/18 00:03:33;;;;;;;10.13;8.00;;;;;;;10.82;93.17;98075.69;5036456;28;20197;-72
2023/01/18 00:06:01;;;;;;;12.13;8.20;;;;;;;10.81;92.83;98079.41;5034852;28;20221;-73
2023/01/18 00:08:29;;;;;;;9.60;8.27;;;;;;;10.71;93.40;98068.56;5034879;28;20300;-74
2023/01/18 00:11:02;;;;;;;16.30;8.33;;;;;;;10.82;93.39;98060.59;5034696;28;20247;-74
2023/01/18 00:13:28;;;;;;;9.20;6.83;;;;;;;10.89;93.15;98065.78;5050672;28;20742;-76
2023/01/18 00:16:01;;;;;;;7.60;6.43;;;;;;;10.92;93.12;98076.72;5054235;28;20621;-76
2023/01/18 00:18:29;;;;;;;6.80;6.13;;;;;;;10.98;92.91;98065.19;5053598;28;20189;-76
2023/01/18 00:21:00;;;;;;;8.30;6.07;;;;;;;10.97;93.04;98057.44;5054401;28;20262;-77
2023/01/18 00:23:27;;;;;;;8.67;6.17;;;;;;;11.03;92.91;98064.50;5038016;28;20221;-76
2023/01/18 00:25:54;;;;;;;11.13;6.47;;;;;;;10.90;92.73;98072.69;5034368;28;20255;-76
2023/01/18 00:28:21;;;;;;;10.00;6.30;;;;;;;10.72;92.88;98075.50;5034419;28;20201;-76
2023/01/18 00:30:48;;;;;;;8.47;6.70;;;;;;;10.69;93.54;98076.75;5044768;28;20732;-76
2023/01/18 00:33:15;;;;;;;7.53;5.87;;;;;;;10.61;94.10;98085.06;5052606;28;20193;-76
2023/01/18 00:35:43;;;;;;;7.30;6.60;;;;;;;10.71;93.52;98076.53;5054354;28;20200;-76
2023/01/18 00:38:10;;;;;;;7.03;5.57;;;;;;;10.82;93.15;98081.84;5054191;28;20238;-76
2023/01/18 00:40:37;;;;;;;8.27;6.47;;;;;;;10.94;92.99;98072.00;5053695;28;20197;-75
2023/01/18 00:45:47;;;;;;;7.50;5.23;;;;;;;10.98;91.47;98095.47;5054093;28;20199;-76
2023/01/18 00:48:14;;;;;;;8.77;6.10;;;;;;;10.96;91.48;98103.66;5053556;28;20193;-76
2023/01/18 00:50:41;;;;;;;7.30;5.73;;;;;;;11.00;91.37;98094.19;5053403;28;20192;-76
2023/01/18 00:53:09;;;;;;;6.43;5.83;;;;;;;11.07;91.26;98099.38;5041832;28;20217;-76
2023/01/18 00:55:35;;;;;;;12.30;6.07;;;;;;;11.12;91.20;98102.13;5033537;28;20193;-76
2023/01/18 00:58:02;;;;;;;10.70;6.60;;;;;;;11.12;90.69;98096.81;5033729;28;20682;-76
2023/01/18 01:00:29;;;;;;;11.03;6.60;;;;;;;11.09;90.80;98106.06;5033975;28;20747;-76
2023/01/18 01:02:56;;;;;;;8.03;6.30;;;;;;;11.06;90.45;98098.56;5033512;28;20251;-75
2023/01/18 01:08:15;;;;;;;10.10;6.03;;;;;;;11.10;90.83;98078.44;5033645;28;20208;-75
2023/01/18 01:10:43;;;;;;;12.77;6.80;;;;;;;11.08;90.71;98080.56;5047510;28;20692;-74
2023/01/18 01:26:51;;;;;;;8.70;5.07;;;;;;;11.23;90.49;98066.78;5050567;28;20219;-74
2023/01/18 01:29:18;;;;;;;7.27;4.00;;;;;;;11.26;90.37;98067.09;5044563;28;20244;-74
2023/01/18 01:31:44;;;;;;;4.13;3.87;;;;;;;11.29;90.25;98071.13;5051343;28;20192;-74
2023/01/18 01:34:11;;;;;;;8.13;5.07;;;;;;;11.33;90.08;98066.97;5053172;28;20200;-74
2023/01/18 01:36:38;;;;;;;9.53;4.70;;;;;;;11.29;89.49;98055.19;5052678;28;20250;-74
2023/01/18 01:39:05;;;;;;;4.67;4.27;;;;;;;11.38;89.72;98059.91;5051780;28;20189;-74
2023/01/18 01:41:35;;;;;;;7.00;4.43;;;;;;;11.34;89.61;98068.56;5053145;28;20204;-74
2023/01/18 01:44:05;;;;;;;4.90;4.40;;;;;;;11.34;89.29;98060.59;5052951;28;20248;-74
2023/01/18 01:46:39;;;;;;;7.30;3.70;;;;;;;11.33;88.91;98051.03;5051761;28;20227;-75
2023/01/18 01:49:10;;;;;;;4.63;3.73;;;;;;;11.25;89.57;98027.47;5048721;28;20186;-74
2023/01/18 01:51:41;;;;;;;4.63;3.97;;;;;;;11.24;90.04;98052.44;5032797;28;20190;-74
2023/01/18 01:54:12;;;;;;;7.73;3.97;;;;;;;11.23;89.60;98027.69;5033076;28;20195;-75
2023/01/18 01:56:41;;;;;;;9.20;4.13;;;;;;;11.21;89.94;98023.66;5032708;28;20189;-75
2023/01/18 01:59:10;;;;;;;5.53;3.63;;;;;;;11.15;90.19;98045.88;5036546;28;20188;-75
2023/01/18 02:01:38;;;;;;;8.73;4.10;;;;;;;11.15;90.34;98069.78;5051084;28;20284;-74
2023/01/18 02:04:05;;;;;;;7.83;4.53;;;;;;;11.20;89.71;98057.44;5052531;28;20192;-76
2023/01/18 02:06:36;;;;;;;7.43;4.73;;;;;;;11.16;89.72;98045.66;5052040;28;20711;-75
2023/01/18 02:09:04;;;;;;;6.43;4.27;;;;;;;11.07;90.09;98049.72;5035593;28;20190;-75
2023/01/18 02:11:31;;;;;;;6.10;3.90;;;;;;;11.04;90.33;98052.84;5032525;28;20189;-75
2023/01/18 02:14:02;;;;;;;7.13;4.67;;;;;;;11.10;90.09;98073.13;5032578;28;20243;-73
2023/01/18 02:16:48;;;;;;;5.83;4.63;;;;;;;11.11;89.92;98053.50;5040515;28;20193;-73
2023/01/18 02:19:54;;;;;;;9.00;3.90;;;;;;;11.11;90.21;98058.03;5032460;28;20190;-73
2023/01/18 02:22:40;;;;;;;5.30;4.30;;;;;;;11.11;89.84;98074.75;5032050;28;20189;-73
2023/01/18 02:25:32;;;;;;;5.10;3.90;;;;;;;11.25;89.39;98057.53;5032720;28;20233;-74
2023/01/18 02:28:08;;;;;;;8.23;4.33;;;;;;;11.30;89.14;98065.59;5031963;28;20279;-74
2023/01/18 02:30:41;;;;;;;4.20;3.30;;;;;;;11.32;89.04;98083.97;5040847;28;20185;-74
2023/01/18 02:33:15;;;;;;;6.10;3.10;;;;;;;11.36;88.93;98093.91;5052484;28;20560;-74
2023/01/18 02:35:49;;;;;;;3.30;2.90;;;;;;;11.11;89.00;98077.41;5051234;28;20192;-74
2023/01/18 02:38:20;;;;;;;4.43;2.90;;;;;;;11.07;89.66;98047.06;5051191;28;20208;-74
2023/01/18 02:41:02;;;;;;;3.77;3.43;;;;;;;11.07;89.68;98031.13;5052211;28;20185;-74
2023/01/18 02:46:32;;;;;;;12.00;3.97;;;;;;;10.91;90.92;98037.94;5051396;28;20204;-74
2023/01/18 02:49:02;;;;;;;7.83;3.53;;;;;;;10.84;91.02;98047.09;5051971;28;20563;-73
2023/01/18 02:51:29;;;;;;;7.60;3.43;;;;;;;10.95;91.10;98064.88;5051935;28;20192;-73
2023/01/18 02:53:57;;;;;;;5.70;3.10;;;;;;;11.11;90.34;98063.34;5051160;28;20242;-74
2023/01/18 02:56:31;;;;;;;7.17;3.07;;;;;;;11.11;89.84;98066.00;5050355;28;20665;-75
2023/01/18 02:59:06;;;;;;;9.07;3.53;;;;;;;11.11;89.70;98069.44;5035524;28;20244;-74
2023/01/18 03:01:39;;;;;;;5.90;3.60;;;;;;;11.13;89.84;98078.00;5032278;28;20185;-75
2023/01/18 03:04:10;;;;;;;6.27;3.50;;;;;;;11.23;89.17;98094.13;5031787;28;20244;-75
2023/01/18 03:06:40;;;;;;;5.93;3.60;;;;;;;11.27;89.02;98089.97;5037944;28;20197;-77
2023/01/18 03:09:07;;;;;;;6.03;4.23;;;;;;;11.24;88.89;98074.53;5051895;28;20193;-77
2023/01/18 03:11:42;;;;;;;7.60;3.87;;;;;;;11.14;88.88;98063.66;5052681;28;20193;-76
2023/01/18 03:14:20;;;;;;;5.77;3.60;;;;;;;11.11;89.50;98077.41;5055256;28;20184;-75
2023/01/18 03:16:57;;;;;;;5.00;3.00;;;;;;;11.01;89.78;98058.59;5047991;28;20188;-75
2023/01/18 03:25:12;;;;;;;5.20;2.77;;;;;;;11.13;88.90;98067.38;5042475;28;20291;-75
2023/01/18 03:36:04;;;;;;;5.97;3.10;;;;;;;11.21;89.31;98068.84;5054583;28;20246;-73
2023/01/18 03:38:33;;;;;;;7.83;4.33;;;;;;;11.30;88.83;98062.94;5054942;28;20215;-73
2023/01/18 03:41:02;;;;;;;6.47;3.10;;;;;;;11.35;88.75;98073.66;5054965;28;20719;-73
2023/01/18 03:43:35;;;;;;;4.90;2.80;;;;;;;11.32;88.90;98047.56;5041576;28;20197;-74
2023/01/18 03:46:04;;;;;;;6.17;2.90;;;;;;;11.36;89.37;98069.97;5042391;28;20246;-74
2023/01/18 03:48:32;;;;;;;3.17;2.80;;;;;;;11.35;89.14;98063.03;5042621;28;20244;-74
2023/01/18 03:51:05;;;;;;;10.93;3.80;;;;;;;11.39;89.20;98076.69;5034789;28;20251;-72
2023/01/18 03:53:39;;;;;;;4.03;3.53;;;;;;;11.20;89.97;98077.88;5035156;28;20252;-73
2023/01/18 03:56:13;;;;;;;7.93;3.27;;;;;;;11.22;89.99;98063.31;5035232;28;20190;-73
2023/01/18 03:58:43;;;;;;;6.83;3.23;;;;;;;11.17;90.22;98063.19;5035360;28;20235;-73
2023/01/18 04:01:11;;;;;;;5.30;3.77;;;;;;;11.21;90.13;98082.13;5035022;28;20259;-72
2023/01/18 04:03:38;;;;;;;14.20;8.50;;;;;;;11.20;90.25;98081.34;5035060;28;20264;-73
2023/01/18 04:06:07;;;;;;;22.23;11.37;;;;;;;11.17;90.18;98073.81;5037198;28;20196;-74
2023/01/18 04:08:34;;;;;;;13.03;5.47;;;;;;;11.17;90.12;98073.81;5051684;28;20270;-74
2023/01/18 04:11:00;;;;;;;12.43;7.57;;;;;;;11.13;90.56;98072.69;5034896;28;20262;-74
2023/01/18 04:13:27;;;;;;;13.70;3.87;;;;;;;10.91;90.84;98059.19;5034664;28;20194;-74
2023/01/18 04:15:54;;;;;;;8.60;4.20;;;;;;;10.81;92.01;98074.09;5034929;28;20197;-75
2023/01/18 04:18:22;;;;;;;11.47;3.83;;;;;;;10.86;91.88;98080.34;5047990;28;20196;-75
2023/01/18 04:20:49;;;;;;;9.10;4.30;;;;;;;10.92;91.68;98075.94;5054827;28;20197;-74
2023/01/18 04:23:15;;;;;;;15.80;5.00;;;;;;;10.95;91.85;98091.44;5052752;28;20256;-75
2023/01/18 04:25:48;;;;;;;12.83;6.13;;;;;;;10.88;92.27;98086.25;5048425;28;20186;-75
2023/01/18 04:28:15;;;;;;;6.03;3.93;;;;;;;10.94;91.84;98103.88;5034315;28;20215;-75
2023/01/18 04:30:42;;;;;;;12.70;4.30;;;;;;;10.96;91.50;98124.91;5044047;28;20222;-74
2023/01/18 04:33:08;;;;;;;9.53;3.70;;;;;;;10.77;91.15;98083.56;5053886;28;20734;-74
2023/01/18 04:35:37;;;;;;;6.70;4.10;;;;;;;10.92;90.66;98102.50;5053201;28;20564;-74
2023/01/18 04:38:03;;;;;;;6.57;3.13;;;;;;;10.91;91.12;98096.38;5053528;28;20323;-74
2023/01/18 04:40:30;;;;;;;9.90;3.53;;;;;;;10.92;91.10;98094.53;5053760;28;20192;-72
2023/01/18 04:42:56;;;;;;;8.23;3.47;;;;;;;10.94;91.12;98105.72;5053677;28;20661;-72
2023/01/18 04:45:23;;;;;;;12.37;4.17;;;;;;;10.81;91.25;98096.16;5051150;28;20197;-72
2023/01/18 04:47:50;;;;;;;6.40;3.53;;;;;;;10.83;91.92;98096.72;5033933;28;20225;-74
2023/01/18 04:50:17;;;;;;;3.83;3.53;;;;;;;10.84;91.14;98084.25;5033947;28;20189;-73
2023/01/18 04:52:45;;;;;;;10.57;3.80;;;;;;;10.89;90.76;98097.66;5033800;28;20649;-73
2023/01/18 04:55:14;;;;;;;8.50;4.17;;;;;;;10.79;90.72;98094.78;5034123;28;20243;-72
2023/01/18 04:57:41;;;;;;;10.07;4.00;;;;;;;10.71;91.94;98089.81;5053149;28;20593;-72
2023/01/18 05:00:09;;;;;;;6.10;4.40;;;;;;;10.67;92.48;98072.72;5053494;28;20263;-79
2023/01/18 05:02:37;;;;;;;3.73;3.37;;;;;;;10.51;95.07;98081.38;5053432;28;20192;-82
2023/01/18 05:05:05;;;;;;;10.17;4.60;;;;;;;10.49;95.82;98070.16;5053613;28;20262;-75
2023/01/18 05:07:33;;;;;;;5.07;3.77;;;;;;;10.65;94.53;98101.34;5052571;28;20266;-76
2023/01/18 05:10:01;;;;;;;7.33;4.10;;;;;;;10.60;93.55;98095.91;5042224;28;20193;-77
2023/01/18 05:12:29;;;;;;;10.60;4.07;;;;;;;10.67;93.09;98120.53;5033409;28;20190;-78
2023/01/18 05:14:55;;;;;;;13.43;4.87;;;;;;;10.53;93.13;98132.38;5044555;28;20259;-77
2023/01/18 05:17:26;;;;;;;14.40;5.37;;;;;;;10.52;92.79;98136.06;5035362;28;20205;-78
2023/01/18 05:19:53;;;;;;;8.90;3.97;;;;;;;10.59;93.05;98102.28;5033638;28;20268;-77
2023/01/18 05:22:19;;;;;;;13.93;4.10;;;;;;;10.47;93.42;98104.09;5033554;28;20204;-76
2023/01/18 05:24:46;;;;;;;12.37;4.37;;;;;;;10.46;94.12;98137.00;5042102;28;20662;-79
2023/01/18 05:27:14;;;;;;;14.37;5.80;;;;;;;10.42;93.60;98117.25;5052997;28;20262;-78
2023/01/18 05:29:41;;;;;;;14.30;5.30;;;;;;;10.43;93.74;98106.41;5052399;28;20258;-78
2023/01/18 05:32:09;;;;;;;11.20;5.13;;;;;;;10.49;94.00;98112.63;5052360;28;20596;-77
2023/01/18 05:34:36;;;;;;;14.27;5.80;;;;;;;10.53;93.48;98119.09;5052970;28;20192;-77
2023/01/18 05:37:03;;;;;;;7.40;4.43;;;;;;;10.49;93.63;98128.56;5053098;28;20192;-80
2023/01/18 05:39:30;;;;;;;17.67;7.43;;;;;;;10.33;94.13;98098.19;5052822;28;20200;-78
2023/01/18 05:41:56;;;;;;;13.07;6.73;;;;;;;10.25;94.60;98117.09;5052585;28;20223;-77
2023/01/18 05:44:24;;;;;;;14.27;8.77;;;;;;;10.35;93.77;98105.94;5032542;28;20638;-78
2023/01/18 05:46:51;;;;;;;14.33;6.80;;;;;;;10.36;94.15;98107.53;5032818;28;20193;-76
2023/01/18 05:49:18;;;;;;;11.20;5.40;;;;;;;10.48;93.81;98113.69;5032240;28;20275;-74
2023/01/18 05:51:44;;;;;;;13.17;6.40;;;;;;;10.52;93.51;98115.66;5047963;28;20208;-75
2023/01/18 05:54:12;;;;;;;7.37;6.30;;;;;;;10.52;93.22;98122.81;5044399;28;20189;-77
2023/01/18 05:56:38;;;;;;;16.90;5.60;;;;;;;10.49;93.12;98124.06;5037086;28;20275;-74
2023/01/18 05:59:05;;;;;;;16.13;6.17;;;;;;;10.41;93.36;98126.25;5037027;28;20255;-74
2023/01/18 06:01:33;;;;;;;13.83;5.53;;;;;;;10.47;93.39;98146.56;5031984;28;20252;-76
2023/01/18 06:04:00;;;;;;;12.50;6.40;;;;;;;10.38;92.99;98132.03;5034672;28;20253;-75
2023/01/18 06:06:27;;;;;;;16.60;7.03;;;;;;;10.23;93.73;98124.50;5050885;28;20266;-76
2023/01/18 06:08:54;;;;;;;25.13;13.47;;;;;;;10.27;94.08;98140.75;5050852;28;20272;-76
2023/01/18 06:11:20;;;;;;;20.87;10.17;;;;;;;10.40;93.40;98137.91;5051208;28;20208;-78
2023/01/18 06:13:47;;;;;;;19.50;9.10;;;;;;;10.35;93.49;98124.50;5051225;28;20200;-74
2023/01/18 06:16:14;;;;;;;29.87;18.77;;;;;;;10.48;93.71;98156.16;5051094;28;20626;-75
2023/01/18 06:18:42;;;;;;;25.47;14.37;;;;;;;10.63;94.15;98145.91;5051797;28;20263;-74
2023/01/18 06:21:10;;;;;;;15.37;7.47;;;;;;;10.84;93.45;98156.78;5049089;28;20266;-76
2023/01/18 06:23:36;;;;;;;27.17;15.73;;;;;;;11.04;93.16;98165.22;5051248;28;20224;-73
2023/01/18 06:26:03;;;;;;;24.33;11.83;;;;;;;11.31;92.49;98160.22;5051284;28;20197;-72
2023/01/18 06:28:30;;;;;;;46.67;29.77;;;;;;;11.41;90.30;98179.06;5049938;28;20627;-74
2023/01/18 06:30:57;;;;;;;11.27;7.27;;;;;;;11.56;90.33;98170.63;5049704;28;20197;-73
2023/01/18 06:33:24;;;;;;;15.90;8.00;;;;;;;11.76;89.07;98174.50;5052005;28;20260;-70
2023/01/18 06:35:52;;;;;;;15.23;7.07;;;;;;;11.77;87.98;98180.66;5052125;28;20657;-71
2023/01/18 06:38:19;;;;;;;18.13;6.77;;;;;;;11.84;87.20;98154.72;5051326;28;20209;-72
2023/01/18 06:40:46;;;;;;;11.93;6.93;;;;;;;11.85;86.65;98167.81;5034339;28;20248;-72
2023/01/18 06:43:13;;;;;;;10.50;6.33;;;;;;;11.95;86.98;98191.13;5040157;28;20557;-71
2023/01/18 06:45:40;;;;;;;13.60;7.37;;;;;;;12.08;85.67;98183.66;5051304;28;20281;-71
2023/01/18 06:48:07;;;;;;;15.90;6.80;;;;;;;12.20;85.47;98171.13;5050503;28;20229;-72
2023/01/18 06:50:34;;;;;;;10.60;6.00;;;;;;;12.54;87.26;98183.44;5055994;28;20197;-72
2023/01/18 06:53:02;;;;;;;11.57;5.93;;;;;;;12.92;87.77;98196.91;5052649;28;20640;-71
2023/01/18 06:55:28;;;;;;;9.67;6.30;;;;;;;13.17;82.19;98210.66;5053620;28;20666;-71
2023/01/18 06:57:55;;;;;;;13.50;5.80;;;;;;;13.29;82.69;98195.38;5040881;28;20551;-70
2023/01/18 07:00:23;;;;;;;32.53;8.87;;;;;;;13.64;78.87;98179.84;5058130;28;20285;-71
2023/01/18 07:02:51;;;;;;;8.30;4.43;;;;;;;14.09;89.90;98156.34;5058178;28;20194;-66
2023/01/18 07:05:18;;;;;;;13.73;6.17;;;;;;;14.95;90.99;98190.88;5055486;28;20234;-66
2023/01/18 07:07:45;;;;;;;16.97;6.37;;;;;;;15.92;82.30;98231.41;5047744;28;20189;-67
2023/01/18 07:10:14;;;;;;;19.93;5.73;;;;;;;16.60;78.03;98227.66;5046923;28;20193;-67
2023/01/18 07:12:40;;;;;;;13.43;5.73;;;;;;;17.24;73.45;98234.16;5055333;28;20199;-67
2023/01/18 07:15:08;;;;;;;27.63;14.37;;;;;;;17.75;64.78;98257.22;5055220;28;20197;-67
2023/01/18 07:17:34;;;;;;;13.73;9.30;;;;;;;17.58;63.77;98256.69;5038386;28;20229;-67
2023/01/18 07:20:01;;;;;;;18.87;8.40;;;;;;;17.38;66.18;98244.09;5038016;28;20247;-67
2023/01/18 07:22:28;;;;;;;12.63;6.83;;;;;;;17.50;69.30;98233.91;5057078;28;20198;-67
2023/01/18 07:24:54;;;;;;;24.13;13.73;;;;;;;17.86;62.78;98258.81;5057870;28;20230;-67
2023/01/18 07:27:22;;;;;;;10.77;8.53;;;;;;;18.28;64.93;98240.38;5038658;28;20234;-68
2023/01/18 07:29:49;;;;;;;21.33;10.17;;;;;;;18.44;65.02;98229.31;5040819;28;20223;-67
2023/01/18 07:32:17;;;;;;;12.53;7.07;;;;;;;18.72;61.79;98246.63;5058278;28;20204;-68
2023/01/18 07:34:43;;;;;;;18.97;8.10;;;;;;;19.08;60.92;98246.09;5057952;28;20204;-69
2023/01/18 07:37:10;;;;;;;24.03;13.10;;;;;;;19.06;59.09;98231.31;5040931;28;20263;-67
2023/01/18 07:39:37;;;;;;;22.10;10.17;;;;;;;19.07;58.77;98244.50;5045829;28;20201;-67
2023/01/18 07:42:04;;;;;;;28.73;9.13;;;;;;;19.11;57.53;98240.19;5043722;28;20193;-67
2023/01/18 07:44:32;;;;;;;13.30;7.37;;;;;;;19.03;55.40;98259.63;5036399;28;20289;-67
2023/01/18 07:46:59;;;;;;;11.23;7.10;;;;;;;18.76;56.71;98253.06;5038215;28;20193;-67
2023/01/18 07:49:26;;;;;;;13.37;6.13;;;;;;;18.68;62.16;98253.66;5057275;28;20220;-67
2023/01/18 07:51:52;;;;;;;19.60;7.37;;;;;;;18.77;60.63;98271.63;5057033;28;20288;-85
2023/01/18 07:54:19;;;;;;;15.87;7.37;;;;;;;18.77;57.03;98270.81;5057349;28;20197;-84
2023/01/18 07:56:46;;;;;;;30.47;8.93;;;;;;;18.67;58.48;98258.22;5057498;28;20253;-85
2023/01/18 07:59:12;;;;;;;14.57;7.73;;;;;;;18.90;57.87;98270.19;5052977;28;20200;-84
2023/01/18 08:01:40;;;;;;;41.30;17.83;;;;;;;19.02;57.43;98284.09;5054427;28;20193;-73
2023/01/18 08:04:08;;;;;;;29.43;11.70;;;;;;;19.18;56.55;98286.44;5036462;28;20196;-81
2023/01/18 08:06:34;;;;;;;28.87;10.80;;;;;;;19.31;55.99;98287.69;5043783;28;20246;-82
2023/01/18 08:09:01;;;;;;;18.03;8.10;;;;;;;19.45;55.62;98300.22;5054645;28;20287;-80
2023/01/18 08:11:28;;;;;;;34.97;12.23;;;;;;;19.69;54.75;98300.31;5054304;28;20254;-82
2023/01/18 08:13:54;;;;;;;39.07;17.90;;;;;;;19.78;54.98;98306.69;5054065;28;20192;-80
2023/01/18 08:16:21;;;;;;;30.67;8.23;;;;;;;19.88;54.26;98309.28;5052612;28;20202;-74
2023/01/18 08:18:50;;;;;;;38.10;11.20;;;;;;;19.81;53.98;98308.84;5054634;28;20258;-79
2023/01/18 08:21:17;;;;;;;133.37;14.03;;;;;;;19.65;55.15;98315.44;5053535;28;20200;-85
2023/01/18 08:23:44;;;;;;;44.30;9.53;;;;;;;19.61;55.47;98307.09;5041757;28;20299;-86
2023/01/18 08:26:11;;;;;;;18.73;6.10;;;;;;;19.46;53.42;98303.75;5034577;28;20264;-84
2023/01/18 08:28:40;;;;;;;11.63;5.60;;;;;;;19.44;54.15;98303.25;5034060;28;20313;-85
2023/01/18 08:31:10;;;;;;;12.43;3.87;;;;;;;19.34;52.71;98287.16;5046781;28;20192;-82
2023/01/18 08:33:44;;;;;;;12.77;5.60;;;;;;;19.42;53.30;98305.41;5054189;28;20192;-81
2023/01/18 08:36:13;;;;;;;18.43;5.97;;;;;;;19.71;53.55;98303.53;5034621;28;20193;-78
2023/01/18 08:38:40;;;;;;;13.10;6.43;;;;;;;19.76;53.19;98303.47;5034546;28;20201;-78
2023/01/18 08:41:07;;;;;;;8.07;6.03;;;;;;;19.70;53.60;98310.00;5033831;28;20197;-79
2023/01/18 08:43:34;;;;;;;14.53;6.00;;;;;;;19.69;54.62;98309.19;5049176;28;20575;-80
2023/01/18 08:46:01;;;;;;;11.23;4.93;;;;;;;19.70;53.54;98308.13;5051476;28;20323;-80
2023/01/18 08:48:27;;;;;;;7.87;4.77;;;;;;;19.76;54.57;98327.72;5053783;28;20276;-81
2023/01/18 08:50:54;;;;;;;18.53;5.33;;;;;;;20.05;54.43;98309.69;5054188;28;20250;-79
2023/01/18 08:53:22;;;;;;;12.80;4.97;;;;;;;20.39;53.09;98310.41;5053996;28;20197;-81
2023/01/18 08:55:49;;;;;;;9.93;4.77;;;;;;;20.82;51.40;98320.09;5049786;28;20199;-78
2023/01/18 08:58:16;;;;;;;38.73;5.93;;;;;;;21.28;49.33;98313.00;5052044;28;20203;-78
2023/01/18 09:00:42;;;;;;;9.27;4.27;;;;;;;21.68;48.14;98320.44;5053380;28;20192;-79
2023/01/18 09:03:09;;;;;;;8.70;4.00;;;;;;;21.76;47.50;98325.22;5050138;28;20193;-80
2023/01/18 09:05:36;;;;;;;5.77;3.80;;;;;;;21.95;46.50;98325.97;5053653;28;20248;-78
2023/01/18 09:08:03;;;;;;;19.73;5.23;;;;;;;22.19;46.39;98310.38;5053096;28;20778;-78
2023/01/18 09:10:31;;;;;;;22.77;4.30;;;;;;;22.35;46.46;98325.22;5053063;28;20640;-84
2023/01/18 09:12:58;;;;;;;29.23;5.23;;;;;;;22.61;46.72;98334.47;5053638;28;20243;-81
2023/01/18 09:15:25;;;;;;;14.20;3.93;;;;;;;22.93;45.51;98317.28;5052162;28;20192;-78
2023/01/18 09:17:52;;;;;;;24.70;4.90;;;;;;;23.16;44.03;98310.81;5053374;28;20200;-86
2023/01/18 09:20:19;;;;;;;8.70;3.90;;;;;;;23.07;43.54;98321.56;5053253;28;20200;-77
2023/01/18 09:22:46;;;;;;;6.30;3.20;;;;;;;22.97;44.35;98319.09;5053050;28;20673;-79
2023/01/18 09:25:13;;;;;;;45.80;5.33;;;;;;;23.18;44.25;98331.06;5051928;28;20235;-83
2023/01/18 09:27:41;;;;;;;10.27;3.70;;;;;;;23.34;43.21;98318.00;5045765;28;20201;-83
2023/01/18 09:30:09;;;;;;;11.47;4.17;;;;;;;23.38;42.75;98318.97;5037901;28;20258;-83
2023/01/18 09:32:36;;;;;;;8.47;3.20;;;;;;;23.41;42.61;98316.47;5053241;28;20196;-80
2023/01/18 09:35:04;;;;;;;225.03;14.80;;;;;;;23.46;42.33;98310.13;5051874;28;20611;-76
2023/01/18 09:37:31;;;;;;;21.90;9.37;;;;;;;23.54;41.49;98312.91;5048971;28;20233;-78
2023/01/18 09:39:59;;;;;;;19.37;4.43;;;;;;;23.58;40.25;98296.81;5038646;28;20189;-83
2023/01/18 09:42:34;;;;;;;7.23;3.00;;;;;;;23.56;39.54;98288.97;5052086;28;20200;-80
2023/01/18 09:45:04;;;;;;;20.73;4.00;;;;;;;23.48;41.12;98297.06;5034067;28;20189;-83
2023/01/18 09:47:35;;;;;;;9.40;3.20;;;;;;;23.66;40.90;98304.19;5047500;28;20188;-80
2023/01/18 09:50:13;;;;;;;10.17;3.60;;;;;;;23.90;40.21;98310.91;5043040;28;20700;-82
2023/01/18 09:52:52;;;;;;;5.77;3.33;;;;;;;24.10;39.91;98296.03;5052609;28;20285;-83
2023/01/18 09:55:24;;;;;;;42.17;5.57;;;;;;;24.11;38.89;98295.72;5052486;28;20182;-83
2023/01/18 09:58:04;;;;;;;10.20;3.57;;;;;;;24.09;39.72;98306.06;5052763;28;20183;-83
2023/01/18 10:00:36;;;;;;;10.20;4.67;;;;;;;23.90;40.28;98294.63;5037346;28;20251;-83
2023/01/18 10:03:10;;;;;;;12.70;3.30;;;;;;;24.13;39.94;98314.41;5032385;28;20193;-83
2023/01/18 10:05:45;;;;;;;9.83;3.43;;;;;;;24.25;38.21;98311.88;5032483;28;20191;-80
2023/01/18 10:08:15;;;;;;;6.77;3.73;;;;;;;24.04;38.58;98284.50;5040005;28;20178;-69
2023/01/18 10:10:50;;;;;;;5.73;3.10;;;;;;;24.07;42.85;98302.88;5051092;28;20766;-69
2023/01/18 10:13:34;;;;;;;13.87;3.57;;;;;;;24.27;41.21;98306.97;5033843;28;20191;-70
2023/01/18 10:16:02;;;;;;;9.67;3.13;;;;;;;24.06;38.67;98303.19;5037186;28;20196;-71
2023/01/18 10:18:29;;;;;;;13.77;2.60;;;;;;;24.11;37.51;98305.75;5033292;28;20195;-71
2023/01/18 10:21:00;;;;;;;6.83;1.90;;;;;;;23.95;35.67;98302.66;5031231;28;20199;-71
2023/01/18 10:23:31;;;;;;;7.77;2.03;;;;;;;23.95;35.88;98286.38;5049618;28;20224;-70
2023/01/18 10:26:03;;;;;;;12.27;2.33;;;;;;;23.54;36.60;98309.38;5047747;28;20197;-71
2023/01/18 10:28:44;;;;;;;11.13;2.67;;;;;;;23.16;37.87;98298.03;5048929;28;20231;-70
2023/01/18 10:31:23;;;;;;;6.43;2.13;;;;;;;22.90;38.35;98291.59;5046866;28;20648;-69
2023/01/18 10:33:53;;;;;;;6.53;2.00;;;;;;;22.60;37.85;98305.81;5044779;28;20803;-71
2023/01/18 10:36:25;;;;;;;9.17;2.40;;;;;;;22.56;38.03;98298.56;5042703;28;20193;-70
2023/01/18 10:38:54;;;;;;;10.70;1.80;;;;;;;22.62;38.47;98297.38;5031875;28;20723;-71
2023/01/18 10:41:26;;;;;;;32.03;2.70;;;;;;;22.58;37.94;98297.16;5032046;28;20189;-71
2023/01/18 10:43:53;;;;;;;3.47;1.73;;;;;;;22.44;37.19;98309.88;5032445;28;20224;-69
2023/01/18 10:46:21;;;;;;;6.00;1.83;;;;;;;22.28;37.19;98310.47;5032253;28;20234;-70
2023/01/18 10:48:50;;;;;;;25.33;3.23;;;;;;;22.18;38.67;98310.66;5043408;28;20203;-70
2023/01/18 10:51:30;;;;;;;5.83;1.37;;;;;;;21.97;38.16;98294.00;5051589;28;20204;-69
2023/01/18 10:53:57;;;;;;;2.97;1.90;;;;;;;22.21;38.68;98310.09;5052162;28;20275;-69
2023/01/18 10:56:26;;;;;;;8.17;1.70;;;;;;;22.12;38.62;98299.16;5046742;28;20253;-70
2023/01/18 10:58:57;;;;;;;53.13;4.90;;;;;;;22.14;39.06;98313.19;5037711;28;20243;-69
2023/01/18 11:01:28;;;;;;;9.73;1.77;;;;;;;21.88;38.74;98312.03;5031574;28;20272;-70
2023/01/18 11:04:01;;;;;;;14.53;2.33;;;;;;;21.78;39.40;98301.41;5032221;28;20240;-70
2023/01/18 11:06:28;;;;;;;12.07;2.13;;;;;;;21.76;38.67;98313.63;5031874;28;20207;-69
2023/01/18 11:08:55;;;;;;;19.63;2.63;;;;;;;21.77;37.65;98310.63;5045741;28;20731;-70
2023/01/18 11:14:24;;;;;;;15.03;2.40;;;;;;;21.76;39.30;98314.41;5031337;28;20197;-70
2023/01/18 11:17:00;;;;;;;7.20;1.80;;;;;;;21.82;39.20;98310.53;5031869;28;20247;-71
2023/01/18 11:19:27;;;;;;;13.43;2.60;;;;;;;21.72;38.44;98313.38;5031701;28;20205;-72
2023/01/18 11:21:54;;;;;;;44.83;4.13;;;;;;;21.38;39.04;98303.91;5040351;28;20188;-70
2023/01/18 11:24:26;;;;;;;12.03;2.30;;;;;;;21.16;40.04;98307.25;5051568;28;20290;-69
2023/01/18 11:26:57;;;;;;;7.37;2.57;;;;;;;21.09;40.43;98298.69;5049442;28;20192;-68
2023/01/18 11:29:28;;;;;;;34.07;3.93;;;;;;;20.91;40.38;98288.72;5055228;28;20208;-69
2023/01/18 11:31:55;;;;;;;9.63;2.27;;;;;;;20.89;40.59;98276.53;5047022;28;20189;-72
2023/01/18 11:34:27;;;;;;;12.77;3.10;;;;;;;20.67;40.85;98298.72;5042907;28;20201;-68
2023/01/18 11:36:55;;;;;;;39.47;4.00;;;;;;;20.52;41.92;98293.50;5053470;28;20624;-68
2023/01/18 11:39:31;;;;;;;10.63;2.60;;;;;;;20.29;42.50;98291.63;5053205;28;20672;-69
2023/01/18 11:42:22;;;;;;;14.77;2.80;;;;;;;20.28;43.03;98287.31;5054279;28;20245;-69
2023/01/18 11:45:00;;;;;;;17.20;2.70;;;;;;;20.38;42.73;98289.91;5054954;28;20254;-68
2023/01/18 11:47:36;;;;;;;11.37;2.83;;;;;;;20.39;42.87;98280.72;5055272;28;20189;-70
2023/01/18 11:50:13;;;;;;;29.80;3.00;;;;;;;20.52;42.10;98290.81;5055122;28;20729;-69
2023/01/18 11:52:50;;;;;;;15.33;2.70;;;;;;;20.46;42.64;98290.06;5054715;28;20590;-70
2023/01/18 11:55:25;;;;;;;16.60;2.57;;;;;;;20.59;42.21;98300.16;5054467;28;20180;-70
2023/01/18 11:57:53;;;;;;;15.57;2.77;;;;;;;20.64;42.19;98302.00;5054870;28;20219;-69
2023/01/18 12:00:26;;;;;;;21.87;2.97;;;;;;;20.58;41.82;98303.94;5052030;28;20215;-68
2023/01/18 12:03:17;;;;;;;20.53;3.37;;;;;;;20.64;42.52;98318.19;5053599;28;20220;-68
2023/01/18 12:05:51;;;;;;;16.33;3.47;;;;;;;20.68;42.21;98311.13;5055103;28;20181;-69
2023/01/18 12:08:45;;;;;;;22.93;3.60;;;;;;;20.66;42.07;98316.00;5054378;28;20675;-70
2023/01/18 12:11:27;;;;;;;12.20;2.83;;;;;;;20.66;42.25;98316.00;5054131;28;20263;-69
2023/01/18 12:14:02;;;;;;;46.20;5.60;;;;;;;20.91;42.19;98313.00;5049951;28;20192;-70
2023/01/18 12:16:45;;;;;;;15.67;3.00;;;;;;;20.93;41.46;98321.59;5052591;28;20201;-75
2023/01/18 12:19:46;;;;;;;21.93;3.23;;;;;;;20.95;41.45;98324.03;5053700;28;20220;-75